createdAt,value
2023-03-24T00:00:24.077Z,1.80
2023-03-24T00:02:51.560Z,1.70
2023-03-24T00:05:22.385Z,1.70
2023-03-24T00:07:54.678Z,1.60
2023-03-24T00:10:22.936Z,1.50
2023-03-24T00:12:51.452Z,1.60
2023-03-24T00:15:21.404Z,1.60
2023-03-24T00:17:52.075Z,1.60
2023-03-24T00:20:22.271Z,1.60
2023-03-24T00:22:56.810Z,1.60
2023-03-24T00:25:29.481Z,1.70
2023-03-24T00:27:57.916Z,1.70
2023-03-24T00:30:26.073Z,1.70
2023-03-24T00:32:53.797Z,1.60
2023-03-24T00:35:21.957Z,1.60
2023-03-24T00:37:52.012Z,1.70
2023-03-24T00:40:21.222Z,1.60
2023-03-24T00:42:50.235Z,1.60
2023-03-24T00:45:19.918Z,1.60
2023-03-24T00:47:50.251Z,1.70
2023-03-24T00:50:20.664Z,1.70
2023-03-24T00:52:49.449Z,1.70
2023-03-24T00:55:17.252Z,1.80
2023-03-24T00:57:50.897Z,1.80
2023-03-24T01:00:24.441Z,1.80
2023-03-24T01:02:55.987Z,1.70
2023-03-24T01:05:28.761Z,1.70
2023-03-24T01:08:03.500Z,1.60
2023-03-24T01:10:34.362Z,1.60
2023-03-24T01:13:02.697Z,1.60
2023-03-24T01:15:33.637Z,1.60
2023-03-24T01:18:04.016Z,1.60
2023-03-24T01:20:35.550Z,1.60
2023-03-24T01:23:05.477Z,1.60
2023-03-24T01:25:33.374Z,1.50
2023-03-24T01:28:00.259Z,1.50
2023-03-24T01:30:28.933Z,1.60
2023-03-24T01:32:56.510Z,1.50
2023-03-24T01:35:28.455Z,1.40
2023-03-24T01:37:56.563Z,1.40
2023-03-24T01:40:32.488Z,1.40
2023-03-24T01:43:00.238Z,1.40
2023-03-24T01:46:05.363Z,1.40
2023-03-24T01:48:57.089Z,1.50
2023-03-24T01:51:27.487Z,1.40
2023-03-24T01:54:05.638Z,1.40
2023-03-24T01:56:35.561Z,1.40
2023-03-24T01:59:08.347Z,1.40
2023-03-24T02:01:46.811Z,1.40
2023-03-24T02:04:38.846Z,1.40
2023-03-24T02:07:23.527Z,1.50
2023-03-24T02:09:50.457Z,1.50
2023-03-24T02:12:18.201Z,1.40
2023-03-24T02:14:46.535Z,1.40
2023-03-24T02:17:37.985Z,1.50
2023-03-24T02:20:19.514Z,1.50
2023-03-24T02:22:46.774Z,1.50
2023-03-24T02:25:37.675Z,1.40
2023-03-24T02:28:16.286Z,1.40
2023-03-24T02:31:07.336Z,1.30
2023-03-24T02:33:48.585Z,1.30
2023-03-24T02:36:44.813Z,1.20
2023-03-24T02:39:23.759Z,1.10
2023-03-24T02:42:18.335Z,1.20
2023-03-24T02:44:57.421Z,1.20
2023-03-24T02:47:31.132Z,1.30
2023-03-24T02:50:01.004Z,1.20
2023-03-24T02:52:43.440Z,1.20
2023-03-24T02:55:15.463Z,1.10
2023-03-24T02:57:55.834Z,1.00
2023-03-24T03:00:49.296Z,1.00
2023-03-24T03:03:34.473Z,1.10
2023-03-24T03:06:04.068Z,1.10
2023-03-24T03:08:34.039Z,1.00
2023-03-24T03:11:03.927Z,1.00
2023-03-24T03:13:40.784Z,1.00
2023-03-24T03:16:19.635Z,1.00
2023-03-24T03:18:51.841Z,1.10
2023-03-24T03:21:23.545Z,1.00
2023-03-24T03:23:56.462Z,1.00
2023-03-24T03:26:28.736Z,1.00
2023-03-24T03:29:00.057Z,1.00
2023-03-24T03:31:35.292Z,1.00
2023-03-24T03:34:23.820Z,0.90
2023-03-24T03:37:05.603Z,0.90
2023-03-24T03:39:44.802Z,1.00
2023-03-24T03:42:13.262Z,0.90
2023-03-24T03:44:40.338Z,1.10
2023-03-24T03:47:07.469Z,1.00
2023-03-24T03:49:39.685Z,1.00
2023-03-24T03:52:07.020Z,1.00
2023-03-24T03:54:34.565Z,1.00
2023-03-24T03:57:02.006Z,0.90
2023-03-24T03:59:40.312Z,0.90
2023-03-24T04:02:26.979Z,1.00
2023-03-24T04:05:29.169Z,1.10
2023-03-24T04:08:26.887Z,1.10
2023-03-24T04:11:25.972Z,1.10
2023-03-24T04:14:23.634Z,0.90
2023-03-24T04:17:26.613Z,0.90
2023-03-24T04:20:12.544Z,0.90
2023-03-24T04:23:03.208Z,0.90
2023-03-24T04:25:45.195Z,0.90
2023-03-24T04:28:27.549Z,0.90
2023-03-24T04:31:19.068Z,0.80
2023-03-24T04:34:03.614Z,0.80
2023-03-24T04:36:50.599Z,0.80
2023-03-24T04:39:29.345Z,0.80
2023-03-24T04:42:04.273Z,0.80
2023-03-24T04:44:33.203Z,0.80
2023-03-24T04:47:16.850Z,0.80
2023-03-24T04:50:06.313Z,0.80
2023-03-24T04:52:34.346Z,0.80
2023-03-24T04:55:05.348Z,0.80
2023-03-24T04:57:32.117Z,0.90
2023-03-24T05:00:08.511Z,1.00
2023-03-24T05:02:35.739Z,0.90
2023-03-24T05:05:12.318Z,0.90
2023-03-24T05:07:45.836Z,0.80
2023-03-24T05:10:16.834Z,0.90
2023-03-24T05:12:50.318Z,0.80
2023-03-24T05:15:37.439Z,0.80
2023-03-24T05:18:27.095Z,0.90
2023-03-24T05:20:56.320Z,0.90
2023-03-24T05:23:23.212Z,0.80
2023-03-24T05:25:51.286Z,0.80
2023-03-24T05:28:20.914Z,0.70
2023-03-24T05:30:48.406Z,0.80
2023-03-24T05:33:32.993Z,0.70
2023-03-24T05:36:00.824Z,0.70
2023-03-24T05:38:27.856Z,0.90
2023-03-24T05:41:01.029Z,0.90
2023-03-24T05:43:33.456Z,0.90
2023-03-24T05:46:09.735Z,0.90
2023-03-24T05:48:36.669Z,0.90
2023-03-24T05:51:22.986Z,0.80
2023-03-24T05:53:59.836Z,0.80
2023-03-24T05:56:34.237Z,0.90
2023-03-24T05:59:09.544Z,0.80
2023-03-24T06:01:59.551Z,1.00
2023-03-24T06:04:57.615Z,1.10
2023-03-24T06:07:26.909Z,1.20
2023-03-24T06:09:58.038Z,1.20
2023-03-24T06:12:25.836Z,1.20
2023-03-24T06:14:57.792Z,1.20
2023-03-24T06:17:25.814Z,1.20
2023-03-24T06:20:02.905Z,1.20
2023-03-24T06:22:45.019Z,1.20
2023-03-24T06:25:17.965Z,1.30
2023-03-24T06:27:54.490Z,1.30
2023-03-24T06:30:24.132Z,1.30
2023-03-24T06:32:51.379Z,1.50
2023-03-24T06:35:19.639Z,1.50
2023-03-24T06:37:52.063Z,1.40
2023-03-24T06:40:19.650Z,1.40
2023-03-24T06:42:51.550Z,1.40
2023-03-24T06:45:18.742Z,1.50
2023-03-24T06:47:47.994Z,1.50
2023-03-24T06:50:15.026Z,1.60
2023-03-24T06:52:41.959Z,1.70
2023-03-24T06:55:11.333Z,1.80
2023-03-24T06:57:38.463Z,1.80
2023-03-24T07:00:30.921Z,1.90
2023-03-24T07:03:23.578Z,2.00
2023-03-24T07:06:13.654Z,2.10
2023-03-24T07:08:40.685Z,2.10
2023-03-24T07:11:09.942Z,2.10
2023-03-24T07:13:39.350Z,2.10
2023-03-24T07:16:06.714Z,2.00
2023-03-24T07:18:36.095Z,2.10
2023-03-24T07:21:06.632Z,2.00
2023-03-24T07:23:35.306Z,2.10
2023-03-24T07:26:16.638Z,2.20
2023-03-24T07:28:49.957Z,2.20
2023-03-24T07:31:37.892Z,2.10
2023-03-24T07:34:08.360Z,2.10
2023-03-24T07:36:37.331Z,2.20
2023-03-24T07:39:07.027Z,2.20
2023-03-24T07:41:36.315Z,2.30
2023-03-24T07:44:09.869Z,2.40
2023-03-24T07:46:40.465Z,2.50
2023-03-24T07:49:18.296Z,2.60
2023-03-24T07:51:53.154Z,2.60
2023-03-24T07:54:34.276Z,2.70
2023-03-24T07:57:01.833Z,2.70
2023-03-24T07:59:29.201Z,2.80
2023-03-24T08:02:17.952Z,2.90
2023-03-24T08:05:05.943Z,2.90
2023-03-24T08:07:53.761Z,3.00
2023-03-24T08:10:27.357Z,3.00
2023-03-24T08:12:55.179Z,3.10
2023-03-24T08:15:22.734Z,3.20
2023-03-24T08:17:50.169Z,3.30
2023-03-24T08:20:19.978Z,3.40
2023-03-24T08:22:49.682Z,3.50
2023-03-24T08:25:18.763Z,3.50
2023-03-24T08:27:47.155Z,3.60
2023-03-24T08:30:20.220Z,3.60
2023-03-24T08:32:50.569Z,3.50
2023-03-24T08:35:19.910Z,3.50
2023-03-24T08:37:46.804Z,3.50
2023-03-24T08:40:20.626Z,3.50
2023-03-24T08:42:53.745Z,3.60
2023-03-24T08:45:23.809Z,3.60
2023-03-24T08:47:52.516Z,3.60
2023-03-24T08:50:21.690Z,3.70
2023-03-24T08:52:48.663Z,3.70
2023-03-24T08:55:17.445Z,3.60
2023-03-24T08:57:45.097Z,3.60
2023-03-24T09:00:15.902Z,3.60
2023-03-24T09:02:45.114Z,3.70
2023-03-24T09:05:12.934Z,3.70
2023-03-24T09:07:39.739Z,3.70
2023-03-24T09:10:08.740Z,3.80
2023-03-24T09:12:36.779Z,3.90
2023-03-24T09:15:04.775Z,3.90
2023-03-24T09:17:32.596Z,4.00
2023-03-24T09:20:01.915Z,4.10
2023-03-24T09:22:29.108Z,4.20
2023-03-24T09:24:55.960Z,4.30
2023-03-24T09:27:23.465Z,4.50
2023-03-24T09:29:50.773Z,4.60
2023-03-24T09:32:17.575Z,4.70
2023-03-24T09:34:44.429Z,4.80
2023-03-24T09:37:11.346Z,4.90
2023-03-24T09:39:38.131Z,5.00
2023-03-24T09:42:18.773Z,5.10
2023-03-24T09:44:50.213Z,5.20
2023-03-24T09:47:29.162Z,5.30
2023-03-24T09:50:02.615Z,5.50
2023-03-24T09:52:38.116Z,5.50
2023-03-24T09:55:06.225Z,5.50
2023-03-24T09:57:46.806Z,5.50
2023-03-24T10:00:28.017Z,5.50
2023-03-24T10:03:01.828Z,5.40
2023-03-24T10:05:40.002Z,5.40
2023-03-24T10:08:18.239Z,5.30
2023-03-24T10:11:27.246Z,5.20
2023-03-24T10:14:08.060Z,5.10
2023-03-24T10:16:53.154Z,5.10
2023-03-24T10:19:32.924Z,5.10
2023-03-24T10:22:30.980Z,5.10
2023-03-24T10:25:51.830Z,5.10
2023-03-24T10:28:28.119Z,5.10
2023-03-24T10:30:58.141Z,5.00
2023-03-24T10:33:25.252Z,5.00
2023-03-24T10:36:20.185Z,5.00
2023-03-24T10:38:47.959Z,5.10
2023-03-24T10:41:21.711Z,5.20
2023-03-24T10:43:51.793Z,5.20
2023-03-24T10:46:22.914Z,5.30
2023-03-24T10:48:53.137Z,5.40
2023-03-24T10:51:26.306Z,5.40
2023-03-24T10:54:11.301Z,5.40
2023-03-24T10:57:00.874Z,5.30
2023-03-24T10:59:27.784Z,5.30
2023-03-24T11:02:10.218Z,5.20
2023-03-24T11:04:39.405Z,5.10
2023-03-24T11:07:20.809Z,4.90
2023-03-24T11:10:02.225Z,4.80
2023-03-24T11:12:34.583Z,4.80
2023-03-24T11:15:23.633Z,4.70
2023-03-24T11:17:56.478Z,4.60
2023-03-24T11:20:29.270Z,4.60
2023-03-24T11:22:57.834Z,4.50
2023-03-24T11:25:32.497Z,4.40
2023-03-24T11:28:03.490Z,4.30
2023-03-24T11:30:36.154Z,4.20
2023-03-24T11:33:04.361Z,4.20
2023-03-24T11:35:41.384Z,4.30
2023-03-24T11:38:15.459Z,4.20
2023-03-24T11:40:54.839Z,4.30
2023-03-24T11:43:22.360Z,4.30
2023-03-24T11:46:04.354Z,4.40
2023-03-24T11:48:42.052Z,4.50
2023-03-24T11:51:16.152Z,4.60
2023-03-24T11:53:47.901Z,4.70
2023-03-24T11:56:21.987Z,4.70
2023-03-24T11:59:03.921Z,4.70
2023-03-24T12:01:37.224Z,4.80
2023-03-24T12:04:11.752Z,4.90
2023-03-24T12:06:58.372Z,4.90
2023-03-24T12:09:25.899Z,5.00
2023-03-24T12:12:08.505Z,5.10
2023-03-24T12:14:51.088Z,5.10
2023-03-24T12:17:26.044Z,5.10
2023-03-24T12:20:23.479Z,5.20
2023-03-24T12:23:15.002Z,5.30
2023-03-24T12:26:11.969Z,5.30
2023-03-24T12:29:15.798Z,5.40
2023-03-24T12:31:59.563Z,5.50
2023-03-24T12:34:50.657Z,5.60
2023-03-24T12:37:35.544Z,5.60
2023-03-24T12:40:12.941Z,5.60
2023-03-24T12:42:43.675Z,5.60
2023-03-24T12:45:52.682Z,5.60
2023-03-24T12:48:30.044Z,5.60
2023-03-24T12:51:15.771Z,5.60
2023-03-24T12:53:56.336Z,5.60
2023-03-24T12:56:39.787Z,5.70
2023-03-24T12:59:24.922Z,5.70
2023-03-24T13:02:01.233Z,5.70
2023-03-24T13:04:38.039Z,5.70
2023-03-24T13:07:14.735Z,5.80
2023-03-24T13:10:00.355Z,5.80
2023-03-24T13:12:50.682Z,5.90
2023-03-24T13:15:42.037Z,5.90
2023-03-24T13:18:11.731Z,6.00
2023-03-24T13:20:53.178Z,6.10
2023-03-24T13:23:22.685Z,6.20
2023-03-24T13:25:52.275Z,6.20
2023-03-24T13:28:26.212Z,6.30
2023-03-24T13:30:53.452Z,6.50
2023-03-24T13:33:28.122Z,6.50
2023-03-24T13:36:10.044Z,6.50
2023-03-24T13:38:44.081Z,6.60
2023-03-24T13:41:17.463Z,6.60
2023-03-24T13:43:57.365Z,6.70
2023-03-24T13:46:24.635Z,6.70
2023-03-24T13:48:55.013Z,6.70
2023-03-24T13:51:32.678Z,6.70
2023-03-24T13:54:13.564Z,6.70
2023-03-24T13:56:47.521Z,6.70
2023-03-24T13:59:34.649Z,6.70
2023-03-24T14:02:18.579Z,6.70
2023-03-24T14:04:49.562Z,6.70
2023-03-24T14:07:41.323Z,6.70
2023-03-24T14:10:14.491Z,6.70
2023-03-24T14:12:59.962Z,6.70
2023-03-24T14:15:45.421Z,6.80
2023-03-24T14:18:36.789Z,6.80
2023-03-24T14:21:06.095Z,6.70
2023-03-24T14:23:41.897Z,6.70
2023-03-24T14:26:16.228Z,6.70
2023-03-24T14:28:44.215Z,6.70
2023-03-24T14:31:15.606Z,6.70
2023-03-24T14:33:54.908Z,6.60
2023-03-24T14:36:33.002Z,6.60
2023-03-24T14:39:27.888Z,6.60
2023-03-24T14:41:56.313Z,6.60
2023-03-24T14:44:47.232Z,6.50
2023-03-24T14:47:29.281Z,6.50
2023-03-24T14:49:57.882Z,6.40
2023-03-24T14:52:51.163Z,6.40
2023-03-24T14:55:20.062Z,6.40
2023-03-24T14:57:53.140Z,6.30
2023-03-24T15:00:32.853Z,6.30
2023-03-24T15:03:24.141Z,6.30
2023-03-24T15:05:51.176Z,6.20
2023-03-24T15:08:23.732Z,6.20
2023-03-24T15:11:10.506Z,6.10
2023-03-24T15:13:42.793Z,6.10
2023-03-24T15:16:12.723Z,6.00
2023-03-24T15:19:02.438Z,6.00
2023-03-24T15:21:32.950Z,5.90
2023-03-24T15:24:01.554Z,5.90
2023-03-24T15:26:30.536Z,5.90
2023-03-24T15:29:05.151Z,5.80
2023-03-24T15:31:32.830Z,5.80
2023-03-24T15:34:27.698Z,5.80
2023-03-24T15:37:04.221Z,5.90
2023-03-24T15:39:39.442Z,5.80
2023-03-24T15:42:08.683Z,5.80
2023-03-24T15:44:39.349Z,5.80
2023-03-24T15:47:33.536Z,5.80
2023-03-24T15:50:05.883Z,5.90
2023-03-24T15:52:36.103Z,5.90
2023-03-24T15:55:16.979Z,5.80
2023-03-24T15:57:46.896Z,5.70
2023-03-24T16:00:23.560Z,5.70
2023-03-24T16:02:53.553Z,5.70
2023-03-24T16:05:31.793Z,5.70
2023-03-24T16:07:59.940Z,5.70
2023-03-24T16:10:42.807Z,5.60
2023-03-24T16:13:18.615Z,5.50
2023-03-24T16:15:48.582Z,5.50
2023-03-24T16:18:20.537Z,5.40
2023-03-24T16:20:47.833Z,5.30
2023-03-24T16:23:15.468Z,5.40
2023-03-24T16:25:42.233Z,5.30
2023-03-24T16:28:14.691Z,5.20
2023-03-24T16:30:44.308Z,5.20
2023-03-24T16:33:12.647Z,5.10
2023-03-24T16:35:39.858Z,5.10
2023-03-24T16:38:06.726Z,5.00
2023-03-24T16:40:41.596Z,5.10
2023-03-24T16:43:08.699Z,5.00
2023-03-24T16:45:36.264Z,5.00
2023-03-24T16:48:03.193Z,4.90
2023-03-24T16:50:38.708Z,4.90
2023-03-24T16:53:05.814Z,4.80
2023-03-24T16:55:33.152Z,4.80
2023-03-24T16:58:00.156Z,4.80
2023-03-24T17:00:29.922Z,4.80
2023-03-24T17:03:00.212Z,4.70
2023-03-24T17:05:30.496Z,4.80
2023-03-24T17:07:58.014Z,4.70
2023-03-24T17:10:25.787Z,4.70
2023-03-24T17:12:55.409Z,4.70
2023-03-24T17:15:30.732Z,4.70
2023-03-24T17:17:57.581Z,4.70
2023-03-24T17:20:25.012Z,4.70
2023-03-24T17:22:54.940Z,4.60
2023-03-24T17:25:23.071Z,4.60
2023-03-24T17:27:50.813Z,4.60
2023-03-24T17:30:20.996Z,4.50
2023-03-24T17:32:48.515Z,4.50
2023-03-24T17:35:18.525Z,4.50
2023-03-24T17:37:46.249Z,4.50
2023-03-24T17:40:15.006Z,4.50
2023-03-24T17:42:46.282Z,4.40
2023-03-24T17:45:16.755Z,4.30
2023-03-24T17:47:44.131Z,4.30
2023-03-24T17:50:11.889Z,4.30
2023-03-24T17:52:48.966Z,4.20
2023-03-24T17:55:17.065Z,4.20
2023-03-24T17:57:44.721Z,4.20
2023-03-24T18:00:13.328Z,4.20
2023-03-24T18:02:42.611Z,4.10
2023-03-24T18:05:11.751Z,4.10
2023-03-24T18:07:42.390Z,4.10
2023-03-24T18:10:09.744Z,4.00
2023-03-24T18:12:37.137Z,3.90
2023-03-24T18:15:07.119Z,3.90
2023-03-24T18:17:34.795Z,3.90
2023-03-24T18:20:10.872Z,3.80
2023-03-24T18:22:40.801Z,3.80
2023-03-24T18:25:09.991Z,3.70
2023-03-24T18:27:37.451Z,3.70
2023-03-24T18:30:06.690Z,3.70
2023-03-24T18:32:33.959Z,3.70
2023-03-24T18:35:01.004Z,3.60
2023-03-24T18:37:28.919Z,3.60
2023-03-24T18:39:55.848Z,3.50
2023-03-24T18:42:22.904Z,3.60
2023-03-24T18:44:49.701Z,3.60
2023-03-24T18:47:17.636Z,3.60
2023-03-24T18:49:44.963Z,3.60
2023-03-24T18:52:14.801Z,3.60
2023-03-24T18:54:41.673Z,3.60
2023-03-24T18:57:09.044Z,3.50
2023-03-24T18:59:36.145Z,3.50
2023-03-24T19:02:02.979Z,3.50
2023-03-24T19:04:29.761Z,3.50
2023-03-24T19:06:56.770Z,3.40
2023-03-24T19:09:23.906Z,3.50
2023-03-24T19:11:50.990Z,3.50
2023-03-24T19:14:17.785Z,3.50
2023-03-24T19:16:44.605Z,3.50
2023-03-24T19:19:11.441Z,3.40
2023-03-24T19:21:40.356Z,3.40
2023-03-24T19:24:07.608Z,3.40
2023-03-24T19:26:34.428Z,3.50
2023-03-24T19:29:01.391Z,3.50
2023-03-24T19:31:28.402Z,3.50
2023-03-24T19:33:55.623Z,3.50
2023-03-24T19:36:22.523Z,3.40
2023-03-24T19:38:49.452Z,3.40
2023-03-24T19:41:16.408Z,3.40
2023-03-24T19:43:43.298Z,3.30
2023-03-24T19:46:10.208Z,3.30
2023-03-24T19:48:37.361Z,3.20
2023-03-24T19:51:04.359Z,3.20
2023-03-24T19:53:31.203Z,3.20
2023-03-24T19:55:58.719Z,3.20
2023-03-24T19:58:25.809Z,3.20
2023-03-24T20:00:53.368Z,3.30
2023-03-24T20:03:21.010Z,3.20
2023-03-24T20:05:48.973Z,3.30
2023-03-24T20:08:16.626Z,3.30
2023-03-24T20:10:43.606Z,3.20
2023-03-24T20:13:10.675Z,3.20
2023-03-24T20:15:37.650Z,3.10
2023-03-24T20:18:04.978Z,3.10
2023-03-24T20:20:31.774Z,3.00
2023-03-24T20:22:58.659Z,3.00
2023-03-24T20:25:25.815Z,2.90
2023-03-24T20:27:53.999Z,3.00
2023-03-24T20:30:20.952Z,2.90
2023-03-24T20:32:48.262Z,2.90
2023-03-24T20:35:15.978Z,2.90
2023-03-24T20:37:43.140Z,2.90
2023-03-24T20:40:10.778Z,2.90
2023-03-24T20:42:38.273Z,2.90
2023-03-24T20:45:07.253Z,2.90
2023-03-24T20:47:34.817Z,3.00
2023-03-24T20:50:02.523Z,3.00
2023-03-24T20:52:29.703Z,2.90
2023-03-24T20:54:56.612Z,2.90
2023-03-24T20:57:25.699Z,2.90
2023-03-24T20:59:52.672Z,2.90
2023-03-24T21:02:20.335Z,2.90
2023-03-24T21:04:47.216Z,2.90
2023-03-24T21:07:14.124Z,2.90
2023-03-24T21:09:41.070Z,2.90
2023-03-24T21:12:09.417Z,2.90
2023-03-24T21:14:37.197Z,2.90
2023-03-24T21:17:04.126Z,2.80
2023-03-24T21:19:30.886Z,2.80
2023-03-24T21:21:57.737Z,2.80
2023-03-24T21:24:24.639Z,2.80
2023-03-24T21:26:53.814Z,2.80
2023-03-24T21:29:22.527Z,2.70
2023-03-24T21:31:49.976Z,2.70
2023-03-24T21:34:17.116Z,2.70
2023-03-24T21:36:44.067Z,2.70
2023-03-24T21:39:12.037Z,2.70
2023-03-24T21:41:39.158Z,2.70
2023-03-24T21:44:09.239Z,2.70
2023-03-24T21:46:37.041Z,2.70
2023-03-24T21:49:05.005Z,2.70
2023-03-24T21:51:36.802Z,2.70
2023-03-24T21:54:06.738Z,2.70
2023-03-24T21:56:35.463Z,2.70
2023-03-24T21:59:02.724Z,2.80
2023-03-24T22:01:31.256Z,2.70
2023-03-24T22:03:58.840Z,2.70
2023-03-24T22:06:29.236Z,2.70
2023-03-24T22:08:58.513Z,2.70
2023-03-24T22:11:25.867Z,2.80
2023-03-24T22:13:53.738Z,2.70
2023-03-24T22:16:20.632Z,2.70
2023-03-24T22:18:47.505Z,2.70
2023-03-24T22:21:14.672Z,2.70
2023-03-24T22:23:42.911Z,2.70
2023-03-24T22:26:13.114Z,2.70
2023-03-24T22:28:40.869Z,2.70
2023-03-24T22:31:13.417Z,2.80
2023-03-24T22:33:40.536Z,2.80
2023-03-24T22:36:08.563Z,2.80
2023-03-24T22:38:35.653Z,2.80
2023-03-24T22:41:08.322Z,2.80
2023-03-24T22:43:36.387Z,2.90
2023-03-24T22:46:03.554Z,2.80
2023-03-24T22:48:30.744Z,2.80
2023-03-24T22:50:57.857Z,2.80
2023-03-24T22:53:24.786Z,2.80
2023-03-24T22:55:52.157Z,2.80
2023-03-24T22:58:19.425Z,2.80
2023-03-24T23:00:49.116Z,2.80
2023-03-24T23:03:16.154Z,2.90
2023-03-24T23:05:45.566Z,2.80
2023-03-24T23:08:14.619Z,2.80
2023-03-24T23:10:44.254Z,2.80
2023-03-24T23:13:12.255Z,2.80
2023-03-24T23:15:42.561Z,2.80
2023-03-24T23:18:09.960Z,2.80
2023-03-24T23:20:37.708Z,2.80
2023-03-24T23:23:06.732Z,2.70
2023-03-24T23:25:44.362Z,2.70
2023-03-24T23:28:12.647Z,2.70
2023-03-24T23:30:40.005Z,2.70
2023-03-24T23:33:06.991Z,2.70
2023-03-24T23:35:34.233Z,2.70
2023-03-24T23:38:02.492Z,2.70
2023-03-24T23:40:29.592Z,2.70
2023-03-24T23:42:56.399Z,2.70
2023-03-24T23:45:23.319Z,2.70
2023-03-24T23:47:51.874Z,2.70
2023-03-24T23:50:19.878Z,2.60
2023-03-24T23:52:47.430Z,2.60
2023-03-24T23:55:17.896Z,2.60
2023-03-24T23:57:45.487Z,2.50
